createdAt,value
2022-09-20T00:01:48.902Z,10.90
2022-09-20T00:04:17.356Z,10.89
2022-09-20T00:06:46.556Z,10.88
2022-09-20T00:09:15.439Z,10.87
2022-09-20T00:11:45.680Z,10.83
2022-09-20T00:14:14.734Z,10.77
2022-09-20T00:16:43.543Z,10.74
2022-09-20T00:19:20.482Z,10.72
2022-09-20T00:21:49.795Z,10.70
2022-09-20T00:24:18.299Z,10.70
2022-09-20T00:26:47.200Z,10.72
2022-09-20T00:29:17.164Z,10.72
2022-09-20T00:31:45.739Z,10.70
2022-09-20T00:34:33.917Z,10.66
2022-09-20T00:37:02.733Z,10.65
2022-09-20T00:39:31.901Z,10.62
2022-09-20T00:42:00.723Z,10.63
2022-09-20T00:44:55.730Z,10.67
2022-09-20T00:47:37.301Z,10.72
2022-09-20T00:50:33.872Z,10.76
2022-09-20T00:53:19.169Z,10.78
2022-09-20T00:55:57.911Z,10.76
2022-09-20T00:58:29.525Z,10.72
2022-09-20T01:00:59.802Z,10.72
2022-09-20T01:03:31.872Z,10.76
2022-09-20T01:06:06.450Z,10.79
2022-09-20T01:08:36.993Z,10.79
2022-09-20T01:11:06.284Z,10.76
2022-09-20T01:13:34.736Z,10.74
2022-09-20T01:16:06.144Z,10.71
2022-09-20T01:18:36.739Z,10.71
2022-09-20T01:21:08.024Z,10.74
2022-09-20T01:24:11.685Z,10.71
2022-09-20T01:26:59.465Z,10.70
2022-09-20T01:29:49.147Z,10.70
2022-09-20T01:32:23.031Z,10.65
2022-09-20T01:35:01.513Z,10.64
2022-09-20T01:38:09.241Z,10.64
2022-09-20T01:40:56.228Z,10.63
2022-09-20T01:43:35.304Z,10.65
2022-09-20T01:46:30.643Z,10.69
2022-09-20T01:49:05.294Z,10.76
2022-09-20T01:51:46.013Z,10.79
2022-09-20T01:54:18.109Z,10.79
2022-09-20T01:57:12.077Z,10.77
2022-09-20T02:00:02.218Z,10.76
2022-09-20T02:02:55.868Z,10.77
2022-09-20T02:05:39.607Z,10.80
2022-09-20T02:08:45.449Z,10.81
2022-09-20T02:11:20.092Z,10.82
2022-09-20T02:13:57.967Z,10.78
2022-09-20T02:16:49.371Z,10.75
2022-09-20T02:19:54.079Z,10.72
2022-09-20T02:22:49.647Z,10.71
2022-09-20T02:25:55.178Z,10.71
2022-09-20T02:28:55.263Z,10.67
2022-09-20T02:31:44.786Z,10.64
2022-09-20T02:34:32.780Z,10.61
2022-09-20T02:37:23.237Z,10.57
2022-09-20T02:40:01.483Z,10.53
2022-09-20T02:42:39.260Z,10.53
2022-09-20T02:45:14.628Z,10.51
2022-09-20T02:47:44.312Z,10.50
2022-09-20T02:50:27.338Z,10.49
2022-09-20T02:53:14.859Z,10.51
2022-09-20T02:56:27.503Z,10.51
2022-09-20T02:59:03.824Z,10.52
2022-09-20T03:02:23.536Z,10.52
2022-09-20T03:05:12.025Z,10.46
2022-09-20T03:07:52.274Z,10.46
2022-09-20T03:10:50.663Z,10.45
2022-09-20T03:13:39.711Z,10.48
2022-09-20T03:16:40.999Z,10.56
2022-09-20T03:19:37.958Z,10.60
2022-09-20T03:22:34.204Z,10.60
2022-09-20T03:25:22.187Z,10.61
2022-09-20T03:28:22.543Z,10.64
2022-09-20T03:31:10.238Z,10.70
2022-09-20T03:33:44.643Z,10.73
2022-09-20T03:36:33.803Z,10.76
2022-09-20T03:39:11.452Z,10.73
2022-09-20T03:41:49.059Z,10.70
2022-09-20T03:44:39.590Z,10.64
2022-09-20T03:47:20.132Z,10.63
2022-09-20T03:50:22.330Z,10.61
2022-09-20T03:53:12.762Z,10.62
2022-09-20T03:56:05.340Z,10.62
2022-09-20T03:58:45.968Z,10.61
2022-09-20T04:01:31.423Z,10.60
2022-09-20T04:04:25.336Z,10.56
2022-09-20T04:07:01.244Z,10.53
2022-09-20T04:09:39.193Z,10.48
2022-09-20T04:12:28.146Z,10.49
2022-09-20T04:15:00.289Z,10.44
2022-09-20T04:17:57.699Z,10.41
2022-09-20T04:20:36.658Z,10.42
2022-09-20T04:23:21.293Z,10.42
2022-09-20T04:25:51.430Z,10.41
2022-09-20T04:28:28.429Z,10.44
2022-09-20T04:31:10.465Z,10.48
2022-09-20T04:33:47.863Z,10.53
2022-09-20T04:36:37.097Z,10.58
2022-09-20T04:39:28.170Z,10.63
2022-09-20T04:42:33.084Z,10.62
2022-09-20T04:45:30.641Z,10.68
2022-09-20T04:48:11.362Z,10.72
2022-09-20T04:50:50.065Z,10.75
2022-09-20T04:53:19.662Z,10.68
2022-09-20T04:56:14.920Z,10.64
2022-09-20T04:58:47.563Z,10.62
2022-09-20T05:01:56.159Z,10.65
2022-09-20T05:04:25.108Z,10.74
2022-09-20T05:07:12.535Z,10.77
2022-09-20T05:09:49.871Z,10.82
2022-09-20T05:12:37.546Z,10.89
2022-09-20T05:15:36.683Z,10.91
2022-09-20T05:18:39.416Z,10.98
2022-09-20T05:21:45.907Z,11.01
2022-09-20T05:24:31.655Z,11.04
2022-09-20T05:27:38.017Z,11.12
2022-09-20T05:30:26.366Z,11.18
2022-09-20T05:33:06.414Z,11.20
2022-09-20T05:35:43.475Z,11.25
2022-09-20T05:38:27.171Z,11.24
2022-09-20T05:41:04.803Z,11.27
2022-09-20T05:44:07.178Z,11.35
2022-09-20T05:47:10.163Z,11.38
2022-09-20T05:49:59.245Z,11.46
2022-09-20T05:52:58.926Z,11.56
2022-09-20T05:56:12.584Z,11.65
2022-09-20T05:59:11.913Z,11.68
2022-09-20T06:01:59.110Z,11.72
2022-09-20T06:04:53.706Z,12.02
2022-09-20T06:07:26.525Z,13.08
2022-09-20T06:10:15.721Z,14.19
2022-09-20T06:12:48.233Z,14.84
2022-09-20T06:15:29.127Z,15.42
2022-09-20T06:18:03.878Z,15.80
2022-09-20T06:20:49.049Z,15.53
2022-09-20T06:23:19.084Z,15.22
2022-09-20T06:25:55.528Z,15.30
2022-09-20T06:28:28.866Z,15.50
2022-09-20T06:30:58.544Z,15.54
2022-09-20T06:33:29.300Z,15.39
2022-09-20T06:36:22.306Z,15.09
2022-09-20T06:39:12.678Z,14.68
2022-09-20T06:41:41.843Z,14.46
2022-09-20T06:44:12.570Z,14.13
2022-09-20T06:46:42.074Z,13.81
2022-09-20T06:49:10.877Z,13.52
2022-09-20T06:51:40.431Z,13.21
2022-09-20T06:54:17.753Z,12.95
2022-09-20T06:56:47.974Z,12.82
2022-09-20T06:59:16.770Z,12.70
2022-09-20T07:01:46.104Z,12.61
2022-09-20T07:04:14.819Z,12.59
2022-09-20T07:06:43.268Z,12.62
2022-09-20T07:09:13.183Z,12.61
2022-09-20T07:11:43.379Z,12.55
2022-09-20T07:14:12.065Z,12.56
2022-09-20T07:16:41.305Z,12.57
2022-09-20T07:19:10.145Z,12.55
2022-09-20T07:21:38.653Z,12.53
2022-09-20T07:24:07.384Z,12.48
2022-09-20T07:26:39.161Z,12.44
2022-09-20T07:29:08.303Z,12.39
2022-09-20T07:31:38.012Z,12.35
2022-09-20T07:34:13.455Z,12.45
2022-09-20T07:36:58.931Z,12.74
2022-09-20T07:39:43.090Z,13.34
2022-09-20T07:42:18.851Z,13.63
2022-09-20T07:44:48.115Z,13.73
2022-09-20T07:47:16.939Z,13.78
2022-09-20T07:49:45.494Z,13.84
2022-09-20T07:52:15.130Z,13.94
2022-09-20T07:54:44.968Z,14.51
2022-09-20T07:57:13.745Z,15.17
2022-09-20T07:59:42.278Z,15.64
2022-09-20T08:02:15.537Z,15.81
2022-09-20T08:04:44.466Z,15.45
2022-09-20T08:07:13.667Z,15.10
2022-09-20T08:09:42.791Z,14.84
2022-09-20T08:15:01.954Z,15.17
2022-09-20T08:17:30.844Z,15.76
2022-09-20T08:19:59.335Z,15.81
2022-09-20T08:22:28.563Z,15.60
2022-09-20T08:24:57.450Z,15.39
2022-09-20T08:27:25.921Z,15.06
2022-09-20T08:29:58.022Z,14.89
2022-09-20T08:32:27.607Z,14.84
2022-09-20T08:34:56.569Z,14.63
2022-09-20T08:37:25.695Z,14.49
2022-09-20T08:39:58.442Z,14.32
2022-09-20T08:42:36.685Z,14.14
2022-09-20T08:45:22.251Z,14.01
2022-09-20T08:47:58.842Z,14.19
2022-09-20T08:50:28.477Z,14.44
2022-09-20T08:53:05.623Z,14.60
2022-09-20T08:55:36.973Z,14.54
2022-09-20T08:58:19.948Z,14.56
2022-09-20T09:00:51.831Z,14.83
2022-09-20T09:03:21.100Z,14.99
2022-09-20T09:05:53.133Z,14.94
2022-09-20T09:08:26.563Z,14.98
2022-09-20T09:11:08.939Z,15.07
2022-09-20T09:13:51.763Z,14.92
2022-09-20T09:16:28.725Z,14.92
2022-09-20T09:19:36.313Z,14.91
2022-09-20T09:22:06.330Z,15.36
2022-09-20T09:24:35.526Z,15.90
2022-09-20T09:27:19.692Z,16.23
2022-09-20T09:29:54.826Z,16.30
2022-09-20T09:32:29.975Z,16.51
2022-09-20T09:35:37.440Z,16.76
2022-09-20T09:38:06.982Z,16.66
2022-09-20T09:40:36.573Z,16.70
2022-09-20T09:43:05.173Z,16.84
2022-09-20T09:45:39.064Z,16.87
2022-09-20T09:48:31.584Z,17.04
2022-09-20T09:51:20.817Z,17.24
2022-09-20T09:53:49.839Z,17.24
2022-09-20T09:56:33.873Z,17.20
2022-09-20T09:59:05.851Z,16.99
2022-09-20T10:01:51.575Z,16.92
2022-09-20T10:04:52.428Z,16.74
2022-09-20T10:07:52.413Z,16.66
2022-09-20T10:10:21.562Z,16.27
2022-09-20T10:12:55.895Z,16.03
2022-09-20T10:15:47.206Z,15.80
2022-09-20T10:18:21.948Z,15.77
2022-09-20T10:21:05.926Z,15.92
2022-09-20T10:24:04.705Z,16.04
2022-09-20T10:27:05.064Z,15.93
2022-09-20T10:30:09.697Z,15.88
2022-09-20T10:32:55.816Z,15.72
2022-09-20T10:35:27.030Z,15.69
2022-09-20T10:38:25.369Z,15.59
2022-09-20T10:41:26.019Z,15.60
2022-09-20T10:44:24.487Z,15.64
2022-09-20T10:47:22.625Z,15.78
2022-09-20T10:50:31.899Z,15.73
2022-09-20T10:53:42.046Z,15.54
2022-09-20T10:56:20.036Z,15.52
2022-09-20T10:59:09.190Z,15.43
2022-09-20T11:01:42.508Z,15.36
2022-09-20T11:04:48.773Z,15.30
2022-09-20T11:07:26.820Z,15.23
2022-09-20T11:10:07.973Z,15.20
2022-09-20T11:12:47.127Z,15.11
2022-09-20T11:15:18.178Z,15.15
2022-09-20T11:18:00.273Z,15.21
2022-09-20T11:20:35.831Z,15.28
2022-09-20T11:23:18.611Z,15.42
2022-09-20T11:25:57.809Z,15.47
2022-09-20T11:28:36.457Z,15.38
2022-09-20T11:31:16.055Z,15.28
2022-09-20T11:34:00.832Z,15.21
2022-09-20T11:36:39.674Z,15.21
2022-09-20T11:39:46.733Z,15.22
2022-09-20T11:42:27.281Z,15.32
2022-09-20T11:44:56.673Z,15.48
2022-09-20T11:47:53.857Z,15.58
2022-09-20T11:50:48.082Z,15.62
2022-09-20T11:53:19.965Z,15.70
2022-09-20T11:56:01.385Z,15.72
2022-09-20T11:58:31.943Z,15.71
2022-09-20T12:01:01.171Z,15.76
2022-09-20T12:03:39.640Z,15.82
2022-09-20T12:06:24.935Z,15.85
2022-09-20T12:08:54.342Z,15.84
2022-09-20T12:11:36.376Z,15.77
2022-09-20T12:14:18.380Z,15.38
2022-09-20T12:16:49.162Z,14.98
2022-09-20T12:19:33.683Z,14.66
2022-09-20T12:22:05.443Z,14.46
2022-09-20T12:24:45.471Z,14.33
2022-09-20T12:27:29.741Z,14.25
2022-09-20T12:30:19.199Z,14.24
2022-09-20T12:32:49.491Z,14.20
2022-09-20T12:35:36.315Z,14.18
2022-09-20T12:38:20.373Z,14.18
2022-09-20T12:41:13.465Z,14.23
2022-09-20T12:44:05.857Z,14.30
2022-09-20T12:46:54.992Z,14.32
2022-09-20T12:49:48.363Z,14.38
2022-09-20T12:52:50.845Z,14.52
2022-09-20T12:55:40.927Z,14.66
2022-09-20T12:58:15.379Z,14.75
2022-09-20T13:01:08.504Z,14.78
2022-09-20T13:03:45.631Z,14.85
2022-09-20T13:06:15.212Z,14.86
2022-09-20T13:08:43.909Z,14.91
2022-09-20T13:11:19.159Z,14.96
2022-09-20T13:14:02.854Z,15.04
2022-09-20T13:16:34.490Z,15.11
2022-09-20T13:19:12.414Z,15.19
2022-09-20T13:21:53.866Z,15.33
2022-09-20T13:24:25.354Z,15.53
2022-09-20T13:27:00.620Z,15.62
2022-09-20T13:29:38.080Z,15.69
2022-09-20T13:32:24.769Z,15.64
2022-09-20T13:35:18.718Z,15.73
2022-09-20T13:37:56.649Z,15.76
2022-09-20T13:40:37.015Z,15.81
2022-09-20T13:43:24.890Z,15.83
2022-09-20T13:45:57.897Z,15.94
2022-09-20T13:48:29.273Z,15.99
2022-09-20T13:50:59.119Z,16.09
2022-09-20T13:53:46.316Z,16.20
2022-09-20T13:56:20.210Z,16.42
2022-09-20T13:58:50.622Z,16.61
2022-09-20T14:01:34.050Z,16.76
2022-09-20T14:04:09.269Z,16.74
2022-09-20T14:06:38.159Z,16.62
2022-09-20T14:09:11.311Z,16.57
2022-09-20T14:11:41.353Z,16.48
2022-09-20T14:14:15.630Z,16.23
2022-09-20T14:16:49.651Z,16.01
2022-09-20T14:19:21.569Z,15.75
2022-09-20T14:21:52.380Z,15.45
2022-09-20T14:24:27.844Z,15.15
2022-09-20T14:27:07.592Z,14.89
2022-09-20T14:29:40.395Z,14.61
2022-09-20T14:32:18.433Z,14.40
2022-09-20T14:35:19.069Z,14.18
2022-09-20T14:37:55.231Z,13.96
2022-09-20T14:40:42.568Z,13.88
2022-09-20T14:43:34.419Z,13.86
2022-09-20T14:46:16.037Z,13.89
2022-09-20T14:48:45.863Z,13.91
2022-09-20T14:51:22.502Z,13.88
2022-09-20T14:54:11.957Z,13.83
2022-09-20T14:56:49.684Z,13.78
2022-09-20T14:59:18.426Z,13.76
2022-09-20T15:02:13.325Z,13.77
2022-09-20T15:04:53.167Z,13.75
2022-09-20T15:07:36.971Z,13.72
2022-09-20T15:10:12.462Z,13.73
2022-09-20T15:12:42.414Z,13.78
2022-09-20T15:15:15.503Z,13.82
2022-09-20T15:17:45.892Z,13.85
2022-09-20T15:20:24.313Z,13.90
2022-09-20T15:22:53.304Z,13.98
2022-09-20T15:25:22.864Z,14.03
2022-09-20T15:27:52.342Z,14.08
2022-09-20T15:30:21.841Z,14.13
2022-09-20T15:32:52.792Z,14.18
2022-09-20T15:35:21.622Z,14.26
2022-09-20T15:37:50.458Z,14.34
2022-09-20T15:40:19.299Z,14.42
2022-09-20T15:42:48.556Z,14.40
2022-09-20T15:45:17.175Z,14.39
2022-09-20T15:47:47.017Z,14.41
2022-09-20T15:50:16.065Z,14.40
2022-09-20T15:52:45.222Z,14.40
2022-09-20T15:55:14.097Z,14.41
2022-09-20T15:57:42.900Z,14.38
2022-09-20T16:00:12.355Z,14.29
2022-09-20T16:02:41.331Z,14.24
2022-09-20T16:05:11.655Z,14.20
2022-09-20T16:07:40.566Z,14.13
2022-09-20T16:10:09.532Z,14.04
2022-09-20T16:12:38.911Z,13.94
2022-09-20T16:15:08.526Z,13.83
2022-09-20T16:17:56.251Z,13.69
2022-09-20T16:20:25.681Z,13.57
2022-09-20T16:22:55.065Z,13.48
2022-09-20T16:25:25.224Z,13.40
2022-09-20T16:27:55.124Z,13.31
2022-09-20T16:30:24.960Z,13.22
2022-09-20T16:32:53.824Z,13.09
2022-09-20T16:35:22.909Z,13.00
2022-09-20T16:37:52.165Z,12.94
2022-09-20T16:40:21.368Z,12.86
2022-09-20T16:42:52.409Z,12.82
2022-09-20T16:45:22.143Z,12.79
2022-09-20T16:47:51.455Z,12.75
2022-09-20T16:50:21.178Z,12.68
2022-09-20T16:52:50.728Z,12.65
2022-09-20T16:55:21.662Z,12.62
2022-09-20T16:57:51.481Z,12.54
2022-09-20T17:00:22.581Z,12.47
2022-09-20T17:03:02.546Z,12.43
2022-09-20T17:05:46.894Z,12.37
2022-09-20T17:08:34.137Z,12.35
2022-09-20T17:11:27.998Z,12.32
2022-09-20T17:14:09.665Z,12.25
2022-09-20T17:16:54.805Z,12.19
2022-09-20T17:19:35.030Z,12.15
2022-09-20T17:22:16.000Z,12.11
2022-09-20T17:24:59.429Z,12.11
2022-09-20T17:27:39.997Z,12.07
2022-09-20T17:30:21.127Z,12.05
2022-09-20T17:33:02.581Z,12.05
2022-09-20T17:35:45.838Z,12.08
2022-09-20T17:38:27.926Z,12.12
2022-09-20T17:41:13.606Z,12.16
2022-09-20T17:43:54.742Z,12.18
2022-09-20T17:46:31.919Z,12.20
2022-09-20T17:49:03.117Z,12.23
2022-09-20T17:51:34.403Z,12.22
2022-09-20T17:54:03.942Z,12.16
2022-09-20T17:56:32.816Z,12.15
2022-09-20T17:59:06.022Z,12.14
2022-09-20T18:01:36.395Z,12.12
2022-09-20T18:04:06.855Z,12.08
2022-09-20T18:06:42.717Z,12.08
2022-09-20T18:09:15.370Z,12.10
2022-09-20T18:11:53.098Z,12.14
2022-09-20T18:14:27.988Z,12.16
2022-09-20T18:17:01.436Z,12.13
2022-09-20T18:19:34.112Z,12.09
2022-09-20T18:22:04.482Z,12.06
2022-09-20T18:24:33.303Z,12.09
2022-09-20T18:27:02.786Z,12.11
2022-09-20T18:29:37.001Z,12.16
2022-09-20T18:32:09.408Z,12.18
2022-09-20T18:34:38.784Z,12.17
2022-09-20T18:37:14.412Z,12.13
2022-09-20T18:39:44.168Z,12.07
2022-09-20T18:42:13.177Z,12.03
2022-09-20T18:44:44.178Z,12.02
2022-09-20T18:47:12.839Z,12.03
2022-09-20T18:49:41.457Z,12.03
2022-09-20T18:52:12.532Z,12.01
2022-09-20T18:54:41.732Z,12.05
2022-09-20T18:57:10.893Z,12.07
2022-09-20T18:59:40.554Z,12.05
2022-09-20T19:02:23.720Z,12.08
2022-09-20T19:05:12.726Z,12.04
2022-09-20T19:07:50.821Z,12.03
2022-09-20T19:10:38.393Z,12.03
2022-09-20T19:13:38.563Z,12.08
2022-09-20T19:16:18.806Z,12.14
2022-09-20T19:19:12.276Z,12.12
2022-09-20T19:21:48.114Z,12.13
2022-09-20T19:24:41.710Z,12.10
2022-09-20T19:27:14.476Z,12.01
2022-09-20T19:29:43.418Z,11.94
2022-09-20T19:32:21.929Z,11.93
2022-09-20T19:34:51.978Z,11.92
2022-09-20T19:37:42.291Z,11.94
2022-09-20T19:40:35.921Z,11.90
2022-09-20T19:43:09.332Z,11.87
2022-09-20T19:45:45.263Z,11.87
2022-09-20T19:48:45.105Z,11.84
2022-09-20T19:51:14.711Z,11.81
2022-09-20T19:53:43.860Z,11.73
2022-09-20T19:56:38.998Z,11.66
2022-09-20T19:59:09.413Z,11.59
2022-09-20T20:01:38.129Z,11.60
2022-09-20T20:04:07.764Z,11.63
2022-09-20T20:06:52.090Z,11.66
2022-09-20T20:10:04.604Z,11.64
2022-09-20T20:12:44.954Z,11.56
2022-09-20T20:15:19.732Z,11.50
2022-09-20T20:18:01.001Z,11.43
2022-09-20T20:20:34.393Z,11.38
2022-09-20T20:23:40.966Z,11.34
2022-09-20T20:26:17.719Z,11.27
2022-09-20T20:28:46.304Z,11.22
2022-09-20T20:31:15.636Z,11.20
2022-09-20T20:33:44.588Z,11.19
2022-09-20T20:36:13.320Z,11.16
2022-09-20T20:38:44.030Z,11.12
2022-09-20T20:41:15.586Z,11.08
2022-09-20T20:43:49.003Z,11.06
2022-09-20T20:46:21.505Z,11.06
2022-09-20T20:48:50.823Z,11.05
2022-09-20T20:51:21.488Z,11.08
2022-09-20T20:53:53.581Z,11.12
2022-09-20T20:56:26.193Z,11.12
2022-09-20T20:58:55.885Z,11.14
2022-09-20T21:01:36.915Z,11.15
2022-09-20T21:04:08.401Z,11.15
2022-09-20T21:06:39.835Z,11.15
2022-09-20T21:09:10.940Z,11.15
2022-09-20T21:11:45.042Z,11.18
2022-09-20T21:14:16.211Z,11.15
2022-09-20T21:16:45.377Z,11.11
2022-09-20T21:19:15.959Z,11.04
2022-09-20T21:21:47.559Z,11.00
2022-09-20T21:24:19.850Z,11.03
2022-09-20T21:26:48.915Z,11.09
2022-09-20T21:29:17.572Z,11.17
2022-09-20T21:31:48.065Z,11.24
2022-09-20T21:34:17.902Z,11.25
2022-09-20T21:36:46.812Z,11.25
2022-09-20T21:39:15.523Z,11.23
2022-09-20T21:41:44.090Z,11.18
2022-09-20T21:44:12.888Z,11.14
2022-09-20T21:46:42.365Z,11.09
2022-09-20T21:49:12.985Z,11.06
2022-09-20T21:51:43.330Z,11.03
2022-09-20T21:54:11.861Z,10.99
2022-09-20T21:56:42.014Z,10.97
2022-09-20T21:59:10.892Z,10.96
2022-09-20T22:01:40.565Z,10.95
2022-09-20T22:04:12.941Z,10.92
2022-09-20T22:06:45.729Z,10.92
2022-09-20T22:09:17.020Z,10.84
2022-09-20T22:11:48.501Z,10.77
2022-09-20T22:14:20.234Z,10.73
2022-09-20T22:16:51.684Z,10.73
2022-09-20T22:19:21.988Z,10.71
2022-09-20T22:21:51.737Z,10.67
2022-09-20T22:24:20.687Z,10.63
2022-09-20T22:26:51.987Z,10.66
2022-09-20T22:29:22.395Z,10.66
2022-09-20T22:31:51.277Z,10.64
2022-09-20T22:34:22.163Z,10.61
2022-09-20T22:36:51.179Z,10.56
2022-09-20T22:39:19.833Z,10.57
2022-09-20T22:41:51.564Z,10.58
2022-09-20T22:44:20.406Z,10.57
2022-09-20T22:46:48.871Z,10.54
2022-09-20T22:49:20.178Z,10.48
2022-09-20T22:51:48.960Z,10.50
2022-09-20T22:54:17.296Z,10.50
2022-09-20T22:56:46.553Z,10.52
2022-09-20T22:59:15.564Z,10.51
2022-09-20T23:01:46.298Z,10.51
2022-09-20T23:04:18.268Z,10.52
2022-09-20T23:06:55.302Z,10.51
2022-09-20T23:09:26.366Z,10.54
2022-09-20T23:11:55.437Z,10.56
2022-09-20T23:14:24.423Z,10.56
2022-09-20T23:16:53.788Z,10.53
2022-09-20T23:19:22.623Z,10.50
2022-09-20T23:21:51.397Z,10.44
2022-09-20T23:24:20.329Z,10.38
2022-09-20T23:26:49.243Z,10.33
2022-09-20T23:29:18.019Z,10.35
2022-09-20T23:31:48.443Z,10.34
2022-09-20T23:34:18.396Z,10.30
2022-09-20T23:36:47.157Z,10.27
2022-09-20T23:39:16.594Z,10.26
2022-09-20T23:41:50.627Z,10.28
2022-09-20T23:44:21.207Z,10.31
2022-09-20T23:46:50.393Z,10.34
2022-09-20T23:49:18.896Z,10.34
2022-09-20T23:51:48.986Z,10.32
2022-09-20T23:54:18.182Z,10.28
2022-09-20T23:56:47.898Z,10.23
2022-09-20T23:59:16.796Z,10.14
